Time;durP1;ratioP1;P1;durP2;ratioP2;P2;SDS_P1;SDS_P2;PMS_P1;PMS_P2;Temp;Humidity;BMP_temperature;BMP_pressure;BME280_temperature;BME280_humidity;BME280_pressure;Samples;Min_cycle;Max_cycle;Signal;HPM_P1;HPM_P2
2022/08/24 00:00:15;;;;;;;;;;;19.50;99.90;;;;;;5075504;28;20026;-83
2022/08/24 00:02:43;;;;;;;;;;;19.50;99.90;;;;;;5110195;28;20286;-85
2022/08/24 00:05:15;;;;;;;;;;;19.50;99.90;;;;;;5110597;28;19927;-83
2022/08/24 00:07:42;;;;;;;;;;;19.50;99.90;;;;;;5112590;28;19924;-87
2022/08/24 00:10:11;;;;;;;;;;;19.50;99.90;;;;;;5111819;27;20023;-83
2022/08/24 00:12:37;;;;;;;;;;;19.50;99.90;;;;;;5110137;28;19949;-89
2022/08/24 00:15:03;;;;;;;;;;;19.50;99.90;;;;;;5126357;27;19927;-80
2022/08/24 00:17:30;;;;;;;;;;;19.50;99.90;;;;;;5104765;28;20318;-86
2022/08/24 00:19:58;;;;;;;;;;;19.60;99.90;;;;;;5103006;28;20570;-84
2022/08/24 00:22:27;;;;;;;;;;;19.60;99.90;;;;;;5093239;28;19935;-85
2022/08/24 00:25:13;;;;;;;;;;;19.60;99.90;;;;;;5104422;28;20353;-84
2022/08/24 00:27:39;;;;;;;;;;;19.80;99.90;;;;;;5117350;28;19924;-86
2022/08/24 00:30:07;;;;;;;;;;;19.60;99.90;;;;;;5132145;27;19924;-84
2022/08/24 00:32:33;;;;;;;;;;;19.60;99.90;;;;;;5107660;28;19973;-81
2022/08/24 00:35:00;;;;;;;;;;;19.60;99.90;;;;;;5120957;28;19990;-84
2022/08/24 00:37:27;;;;;;;;;;;19.60;99.90;;;;;;5107348;28;19931;-85
2022/08/24 00:39:53;;;;;;;;;;;19.50;99.90;;;;;;5108383;28;19949;-82
2022/08/24 00:42:20;;;;;;;;;;;19.50;99.90;;;;;;5087243;28;19931;-82
2022/08/24 00:44:46;;;;;;;;;;;19.50;99.90;;;;;;5111883;28;19930;-83
2022/08/24 00:47:17;;;;;;;;;;;19.50;99.90;;;;;;5103115;28;20375;-80
2022/08/24 00:49:46;;;;;;;;;;;19.50;99.90;;;;;;5084108;28;20049;-81
2022/08/24 00:52:20;;;;;;;;;;;19.60;99.90;;;;;;5100137;28;19931;-81
2022/08/24 00:54:50;;;;;;;;;;;19.60;99.90;;;;;;5089501;28;19977;-80
2022/08/24 00:57:17;;;;;;;;;;;19.50;99.90;;;;;;5094116;28;19987;-80
2022/08/24 00:59:49;;;;;;;;;;;19.50;99.90;;;;;;5104838;28;20002;-82
2022/08/24 01:02:18;;;;;;;;;;;19.50;99.90;;;;;;5094981;28;19935;-82
2022/08/24 01:04:50;;;;;;;;;;;19.50;99.90;;;;;;5115880;27;20391;-87
2022/08/24 01:07:16;;;;;;;;;;;19.40;99.90;;;;;;5109997;28;19996;-86
2022/08/24 01:09:42;;;;;;;;;;;19.30;99.90;;;;;;5111948;28;20049;-82
2022/08/24 01:12:08;;;;;;;;;;;19.30;99.90;;;;;;5094023;28;20006;-84
2022/08/24 01:14:36;;;;;;;;;;;19.30;99.90;;;;;;5099311;28;19928;-81
2022/08/24 01:19:49;;;;;;;;;;;19.30;99.90;;;;;;5104232;28;20458;-83
2022/08/24 01:22:39;;;;;;;;;;;19.30;99.90;;;;;;5122137;27;20100;-83
2022/08/24 01:25:06;;;;;;;;;;;19.30;99.90;;;;;;5087104;28;19924;-83
2022/08/24 01:27:33;;;;;;;;;;;19.30;99.90;;;;;;5102175;28;19965;-86
2022/08/24 01:30:00;;;;;;;;;;;19.30;99.90;;;;;;5093556;28;19947;-83
2022/08/24 01:32:29;;;;;;;;;;;19.30;99.90;;;;;;5116328;27;19924;-83
2022/08/24 01:34:56;;;;;;;;;;;19.30;99.90;;;;;;5103171;27;19931;-84
2022/08/24 01:37:21;;;;;;;;;;;19.30;99.90;;;;;;5093508;27;20421;-84
2022/08/24 01:39:48;;;;;;;;;;;19.30;99.90;;;;;;5110085;28;19928;-82
2022/08/24 01:42:14;;;;;;;;;;;19.30;99.90;;;;;;5128795;27;19946;-86
2022/08/24 01:44:42;;;;;;;;;;;19.20;99.90;;;;;;5097901;27;20515;-84
2022/08/24 01:47:09;;;;;;;;;;;19.30;99.90;;;;;;5126765;27;19923;-83
2022/08/24 01:49:36;;;;;;;;;;;19.20;99.90;;;;;;5110684;28;20069;-84
2022/08/24 01:52:05;;;;;;;;;;;19.20;99.90;;;;;;5110475;28;19924;-84
2022/08/24 01:54:31;;;;;;;;;;;19.20;99.90;;;;;;5086675;28;19932;-86
2022/08/24 01:56:57;;;;;;;;;;;19.20;99.90;;;;;;5086315;28;19928;-85
2022/08/24 01:59:24;;;;;;;;;;;19.10;99.90;;;;;;5086579;28;19985;-85
2022/08/24 02:01:52;;;;;;;;;;;19.10;99.90;;;;;;5074298;28;19955;-84
2022/08/24 02:04:18;;;;;;;;;;;19.10;99.90;;;;;;5112580;27;20286;-85
2022/08/24 02:09:13;;;;;;;;;;;19.10;99.90;;;;;;5089290;22;19924;-85
2022/08/24 02:11:39;;;;;;;;;;;19.00;99.90;;;;;;5050728;28;19950;-86
2022/08/24 02:14:06;;;;;;;;;;;19.00;99.90;;;;;;5057089;28;19939;-87
2022/08/24 02:16:32;;;;;;;;;;;19.00;99.90;;;;;;5073477;28;19924;-86
2022/08/24 02:18:58;;;;;;;;;;;19.00;99.90;;;;;;5039804;28;19943;-86
2022/08/24 02:21:24;;;;;;;;;;;19.00;99.90;;;;;;5071409;28;19959;-86
2022/08/24 02:23:50;;;;;;;;;;;19.00;99.90;;;;;;5034870;28;19924;-85
2022/08/24 02:26:16;;;;;;;;;;;19.00;99.90;;;;;;5072979;28;19924;-86
2022/08/24 02:28:42;;;;;;;;;;;18.90;99.90;;;;;;5072695;28;20014;-86
2022/08/24 02:31:10;;;;;;;;;;;18.90;99.90;;;;;;5071814;28;20371;-85
2022/08/24 02:33:37;;;;;;;;;;;18.90;99.90;;;;;;5070372;28;20627;-85
2022/08/24 02:36:04;;;;;;;;;;;18.90;99.90;;;;;;5071627;28;20256;-83
2022/08/24 02:38:30;;;;;;;;;;;18.90;99.90;;;;;;5053995;28;19920;-84
2022/08/24 02:40:56;;;;;;;;;;;18.90;99.90;;;;;;5066330;28;19950;-85
2022/08/24 02:43:23;;;;;;;;;;;18.80;99.90;;;;;;5053974;28;20050;-84
2022/08/24 02:45:49;;;;;;;;;;;18.80;99.90;;;;;;5053655;28;19924;-85
2022/08/24 02:48:15;;;;;;;;;;;18.80;99.90;;;;;;5067565;28;19924;-84
2022/08/24 02:50:42;;;;;;;;;;;18.70;99.90;;;;;;5048998;28;19928;-84
2022/08/24 02:53:09;;;;;;;;;;;18.70;99.90;;;;;;5052777;28;20426;-85
2022/08/24 02:55:38;;;;;;;;;;;18.60;99.90;;;;;;5054161;28;19925;-84
2022/08/24 02:58:04;;;;;;;;;;;18.60;99.90;;;;;;5086949;28;19985;-84
2022/08/24 03:00:30;;;;;;;;;;;18.60;99.90;;;;;;5069659;28;20504;-85
2022/08/24 03:02:56;;;;;;;;;;;18.60;99.90;;;;;;5036927;28;19943;-84
2022/08/24 03:05:22;;;;;;;;;;;18.60;99.90;;;;;;5070378;28;19969;-84
2022/08/24 03:07:48;;;;;;;;;;;18.60;99.90;;;;;;5046206;28;20372;-84
2022/08/24 03:10:14;;;;;;;;;;;18.60;99.90;;;;;;5056328;28;19936;-84
2022/08/24 03:12:40;;;;;;;;;;;18.60;99.90;;;;;;5066245;28;19928;-85
2022/08/24 03:15:09;;;;;;;;;;;18.60;99.90;;;;;;5066017;28;20450;-85
2022/08/24 03:17:35;;;;;;;;;;;18.60;99.90;;;;;;5047587;28;19928;-84
2022/08/24 03:20:02;;;;;;;;;;;18.60;99.90;;;;;;5067385;28;20546;-84
2022/08/24 03:22:28;;;;;;;;;;;18.60;99.90;;;;;;5054914;28;19925;-83
2022/08/24 03:24:54;;;;;;;;;;;18.50;99.90;;;;;;5049211;28;19924;-85
2022/08/24 03:27:20;;;;;;;;;;;18.50;99.90;;;;;;5050426;28;20023;-85
2022/08/24 03:29:45;;;;;;;;;;;18.50;99.90;;;;;;5066274;28;19924;-85
2022/08/24 03:32:11;;;;;;;;;;;18.50;99.90;;;;;;5062035;28;19925;-84
2022/08/24 03:34:37;;;;;;;;;;;18.40;99.90;;;;;;5053543;28;20016;-84
2022/08/24 03:37:03;;;;;;;;;;;18.50;99.90;;;;;;5049405;28;19931;-83
2022/08/24 03:39:29;;;;;;;;;;;18.50;99.90;;;;;;5033055;28;19971;-83
2022/08/24 03:41:55;;;;;;;;;;;18.50;99.90;;;;;;5066091;28;19928;-84
2022/08/24 03:44:24;;;;;;;;;;;18.50;99.90;;;;;;5065934;28;19931;-86
2022/08/24 03:46:51;;;;;;;;;;;18.50;99.90;;;;;;5064956;28;19925;-84
2022/08/24 03:49:17;;;;;;;;;;;18.50;99.90;;;;;;5049103;28;19928;-85
2022/08/24 03:51:43;;;;;;;;;;;18.50;99.90;;;;;;5065142;28;19928;-86
2022/08/24 03:54:10;;;;;;;;;;;18.50;99.90;;;;;;5068950;28;19924;-85
2022/08/24 03:56:36;;;;;;;;;;;18.50;99.90;;;;;;5068122;28;20415;-83
2022/08/24 03:59:02;;;;;;;;;;;18.50;99.90;;;;;;5049068;28;19976;-86
2022/08/24 04:01:27;;;;;;;;;;;18.50;99.90;;;;;;5028372;28;19978;-85
2022/08/24 04:03:54;;;;;;;;;;;18.40;99.90;;;;;;5046433;28;19928;-86
2022/08/24 04:06:20;;;;;;;;;;;18.40;99.90;;;;;;5049867;28;19932;-86
2022/08/24 04:08:47;;;;;;;;;;;18.40;99.90;;;;;;5063357;28;20325;-86
2022/08/24 04:11:18;;;;;;;;;;;18.40;99.90;;;;;;5051664;28;19989;-86
2022/08/24 04:13:44;;;;;;;;;;;18.40;99.90;;;;;;5043404;28;20020;-85
2022/08/24 04:16:11;;;;;;;;;;;18.40;99.90;;;;;;5048597;28;19924;-86
2022/08/24 04:18:38;;;;;;;;;;;18.40;99.90;;;;;;5033896;28;19924;-87
2022/08/24 04:21:04;;;;;;;;;;;18.30;99.90;;;;;;5062271;28;19925;-85
2022/08/24 04:23:32;;;;;;;;;;;18.30;99.90;;;;;;5064577;28;19925;-86
2022/08/24 04:26:02;;;;;;;;;;;18.30;99.90;;;;;;5049987;28;19932;-87
2022/08/24 04:28:52;;;;;;;;;;;18.30;99.90;;;;;;5049909;28;19967;-87
2022/08/24 04:31:22;;;;;;;;;;;18.30;99.90;;;;;;5067054;28;19924;-82
2022/08/24 04:33:48;;;;;;;;;;;18.30;99.90;;;;;;5069780;28;20423;-83
2022/08/24 04:36:15;;;;;;;;;;;18.30;99.90;;;;;;5070757;28;19925;-84
2022/08/24 04:38:41;;;;;;;;;;;18.30;99.90;;;;;;5052050;28;20018;-85
2022/08/24 04:41:08;;;;;;;;;;;18.30;99.90;;;;;;5053771;28;20383;-85
2022/08/24 04:43:34;;;;;;;;;;;18.20;99.90;;;;;;5059050;28;19981;-85
2022/08/24 04:46:03;;;;;;;;;;;18.10;99.90;;;;;;5069312;28;20500;-86
2022/08/24 04:48:29;;;;;;;;;;;18.10;99.90;;;;;;5066703;28;20009;-86
2022/08/24 04:51:00;;;;;;;;;;;18.10;99.90;;;;;;5033153;28;20439;-84
2022/08/24 04:53:25;;;;;;;;;;;18.00;99.90;;;;;;5049913;28;19925;-84
2022/08/24 04:55:51;;;;;;;;;;;18.00;99.90;;;;;;5051198;28;19924;-84
2022/08/24 04:58:17;;;;;;;;;;;18.00;99.90;;;;;;5053358;28;19928;-84
2022/08/24 05:00:43;;;;;;;;;;;18.00;99.90;;;;;;5052551;28;19924;-83
2022/08/24 05:03:10;;;;;;;;;;;18.00;99.90;;;;;;5047041;28;20334;-84
2022/08/24 05:05:40;;;;;;;;;;;18.00;99.90;;;;;;5059336;28;19978;-84
2022/08/24 05:08:06;;;;;;;;;;;18.00;99.90;;;;;;5059981;28;19932;-84
2022/08/24 05:10:32;;;;;;;;;;;18.00;99.90;;;;;;5034652;28;20310;-84
2022/08/24 05:12:58;;;;;;;;;;;18.00;99.90;;;;;;5041927;28;19932;-84
2022/08/24 05:15:23;;;;;;;;;;;18.10;99.90;;;;;;5048879;28;20011;-84
2022/08/24 05:17:50;;;;;;;;;;;18.00;99.90;;;;;;5065572;28;20660;-85
2022/08/24 05:20:16;;;;;;;;;;;18.00;99.90;;;;;;5051844;28;20472;-84
2022/08/24 05:22:42;;;;;;;;;;;18.00;99.90;;;;;;5066315;28;19936;-83
2022/08/24 05:25:08;;;;;;;;;;;18.10;99.90;;;;;;5065610;28;19975;-84
2022/08/24 05:27:34;;;;;;;;;;;18.10;99.90;;;;;;5034909;28;19982;-84
2022/08/24 05:30:00;;;;;;;;;;;18.20;99.90;;;;;;5047623;28;20454;-83
2022/08/24 05:32:26;;;;;;;;;;;18.30;99.90;;;;;;5067410;28;19936;-84
2022/08/24 05:34:53;;;;;;;;;;;18.40;99.90;;;;;;5049351;28;19978;-84
2022/08/24 05:37:20;;;;;;;;;;;18.50;99.90;;;;;;5048744;28;19963;-86
2022/08/24 05:39:49;;;;;;;;;;;18.50;99.90;;;;;;5045532;28;20007;-84
2022/08/24 05:42:15;;;;;;;;;;;18.60;99.90;;;;;;5049237;28;19984;-85
2022/08/24 05:44:41;;;;;;;;;;;18.70;99.90;;;;;;5025904;28;19928;-84
2022/08/24 05:47:07;;;;;;;;;;;18.80;99.90;;;;;;5057066;28;19925;-83
2022/08/24 05:49:32;;;;;;;;;;;18.80;99.90;;;;;;5048692;28;19924;-88
2022/08/24 05:52:18;;;;;;;;;;;18.90;99.90;;;;;;5050024;28;20015;-82
2022/08/24 05:54:44;;;;;;;;;;;19.00;99.90;;;;;;5049299;28;19929;-89
2022/08/24 05:57:11;;;;;;;;;;;19.20;99.90;;;;;;5032930;28;19928;-90
2022/08/24 05:59:39;;;;;;;;;;;19.30;99.90;;;;;;5061142;28;19925;-95
2022/08/24 06:02:07;;;;;;;;;;;19.30;99.90;;;;;;5037456;28;20394;-93
2022/08/24 06:04:36;;;;;;;;;;;19.40;99.90;;;;;;5050855;28;19932;-85
2022/08/24 06:07:09;;;;;;;;;;;19.50;99.90;;;;;;5049660;28;20083;-82
2022/08/24 06:09:35;;;;;;;;;;;19.60;99.90;;;;;;5046897;28;20101;-83
2022/08/24 06:12:01;;;;;;;;;;;19.60;99.90;;;;;;5047200;28;19947;-89
2022/08/24 06:14:27;;;;;;;;;;;19.70;99.90;;;;;;5050152;28;19924;-82
2022/08/24 06:16:53;;;;;;;;;;;19.80;99.90;;;;;;5067816;28;19969;-82
2022/08/24 06:19:19;;;;;;;;;;;19.90;99.90;;;;;;5044150;28;19939;-87
2022/08/24 06:21:46;;;;;;;;;;;20.00;99.90;;;;;;5049463;28;19932;-85
2022/08/24 06:24:14;;;;;;;;;;;20.10;99.90;;;;;;5071830;28;19928;-87
2022/08/24 06:29:56;;;;;;;;;;;20.30;99.90;;;;;;5057649;28;19925;-81
2022/08/24 06:32:42;;;;;;;;;;;20.40;99.90;;;;;;5063707;28;19936;-90
2022/08/24 06:35:09;;;;;;;;;;;20.60;99.90;;;;;;5066990;28;20405;-86
2022/08/24 06:37:54;;;;;;;;;;;20.70;99.90;;;;;;5036801;28;19979;-91
2022/08/24 06:40:20;;;;;;;;;;;20.80;99.90;;;;;;5061502;28;19924;-81
2022/08/24 06:42:47;;;;;;;;;;;20.90;99.90;;;;;;5062783;28;20019;-80
2022/08/24 06:45:13;;;;;;;;;;;21.10;99.90;;;;;;5048070;28;19948;-80
2022/08/24 06:47:39;;;;;;;;;;;;;;;;;;5050044;28;20359;-83
2022/08/24 06:50:24;;;;;;;;;;;21.40;99.90;;;;;;5050050;28;20445;-84
2022/08/24 06:52:49;;;;;;;;;;;21.50;99.90;;;;;;5062324;28;19975;-83
2022/08/24 06:55:15;;;;;;;;;;;21.70;99.90;;;;;;5066504;28;19950;-85
2022/08/24 06:57:41;;;;;;;;;;;21.80;99.90;;;;;;5064390;28;20399;-86
2022/08/24 07:00:09;;;;;;;;;;;22.00;99.90;;;;;;5043616;28;19970;-84
2022/08/24 07:02:34;;;;;;;;;;;22.20;99.90;;;;;;5036302;28;20070;-79
2022/08/24 07:05:00;;;;;;;;;;;22.60;99.90;;;;;;5066387;28;20414;-84
2022/08/24 07:07:26;;;;;;;;;;;23.10;99.90;;;;;;5049093;28;19924;-80
2022/08/24 07:09:52;;;;;;;;;;;23.40;99.90;;;;;;5067450;28;20019;-81
2022/08/24 07:12:18;;;;;;;;;;;23.70;99.90;;;;;;5049720;28;19939;-82
2022/08/24 07:14:44;;;;;;;;;;;24.10;99.90;;;;;;5030252;28;20094;-85
2022/08/24 07:17:09;;;;;;;;;;;24.80;99.90;;;;;;5067754;28;19928;-85
2022/08/24 07:19:36;;;;;;;;;;;25.80;99.90;;;;;;5046702;28;20422;-82
2022/08/24 07:22:02;;;;;;;;;;;26.70;99.90;;;;;;5047402;28;19946;-84
2022/08/24 07:24:28;;;;;;;;;;;28.20;99.90;;;;;;5054687;28;19963;-82
2022/08/24 07:26:55;;;;;;;;;;;28.30;99.90;;;;;;5035419;28;20603;-83
2022/08/24 07:29:21;;;;;;;;;;;28.80;99.90;;;;;;5065155;28;20006;-84
2022/08/24 07:31:47;;;;;;;;;;;29.10;99.90;;;;;;5058583;28;20007;-84
2022/08/24 07:34:14;;;;;;;;;;;29.70;99.90;;;;;;5046703;28;20023;-83
2022/08/24 07:36:40;;;;;;;;;;;30.30;99.90;;;;;;5064925;28;19935;-84
2022/08/24 07:39:06;;;;;;;;;;;30.50;99.90;;;;;;5066238;28;19932;-81
2022/08/24 07:41:51;;;;;;;;;;;30.80;99.90;;;;;;5061201;28;19928;-83
2022/08/24 07:44:17;;;;;;;;;;;30.40;99.90;;;;;;5057265;28;20332;-83
2022/08/24 07:46:43;;;;;;;;;;;29.50;99.90;;;;;;5058852;28;19932;-83
2022/08/24 07:49:11;;;;;;;;;;;28.90;99.90;;;;;;5057137;28;20004;-85
2022/08/24 07:51:37;;;;;;;;;;;28.30;99.90;;;;;;5061877;28;19981;-82
2022/08/24 07:54:03;;;;;;;;;;;27.90;99.90;;;;;;5029512;28;20340;-85
2022/08/24 07:56:30;;;;;;;;;;;27.90;99.90;;;;;;5044817;28;20421;-83
2022/08/24 07:58:57;;;;;;;;;;;28.50;99.90;;;;;;5045113;28;19924;-83
2022/08/24 08:01:26;;;;;;;;;;;29.00;99.90;;;;;;5044882;28;19928;-84
2022/08/24 08:03:52;;;;;;;;;;;29.60;99.90;;;;;;5039960;28;19924;-81
2022/08/24 08:06:18;;;;;;;;;;;30.30;99.90;;;;;;5032863;28;19927;-81
2022/08/24 08:08:44;;;;;;;;;;;30.60;99.90;;;;;;5049680;28;19947;-82
2022/08/24 08:11:10;;;;;;;;;;;31.00;99.90;;;;;;5043917;28;20000;-81
2022/08/24 08:13:36;;;;;;;;;;;31.50;99.10;;;;;;5055610;28;19928;-81
2022/08/24 08:16:05;;;;;;;;;;;31.60;99.30;;;;;;5051606;28;20372;-82
2022/08/24 08:18:31;;;;;;;;;;;31.90;97.50;;;;;;5039301;28;19925;-82
2022/08/24 08:20:56;;;;;;;;;;;31.90;96.00;;;;;;5062678;28;20405;-81
2022/08/24 08:26:11;;;;;;;;;;;32.30;95.00;;;;;;5058901;28;19931;-80
2022/08/24 08:28:36;;;;;;;;;;;32.40;94.40;;;;;;5062440;28;20651;-83
2022/08/24 08:31:03;;;;;;;;;;;32.40;92.70;;;;;;5042225;28;19929;-80
2022/08/24 08:33:29;;;;;;;;;;;32.60;93.00;;;;;;5053911;28;19968;-82
2022/08/24 08:36:01;;;;;;;;;;;32.60;92.20;;;;;;5063959;28;20555;-81
2022/08/24 08:38:27;;;;;;;;;;;32.50;91.80;;;;;;5059533;28;20007;-82
2022/08/24 08:40:54;;;;;;;;;;;32.50;91.80;;;;;;5059201;28;20058;-82
2022/08/24 08:43:20;;;;;;;;;;;32.60;92.50;;;;;;5044494;28;19925;-84
2022/08/24 08:45:59;;;;;;;;;;;32.70;91.00;;;;;;5064865;28;20448;-95
2022/08/24 08:48:25;;;;;;;;;;;32.60;90.80;;;;;;5056837;28;20435;-83
2022/08/24 08:50:54;;;;;;;;;;;32.60;91.50;;;;;;5045038;28;20023;-85
2022/08/24 08:53:20;;;;;;;;;;;32.50;91.40;;;;;;5059842;28;20011;-82
2022/08/24 08:55:52;;;;;;;;;;;32.30;91.40;;;;;;5061694;28;20023;-84
2022/08/24 08:58:37;;;;;;;;;;;32.30;92.90;;;;;;5043152;28;20340;-88
2022/08/24 09:01:05;;;;;;;;;;;31.80;92.40;;;;;;5059329;28;20247;-87
2022/08/24 09:03:50;;;;;;;;;;;31.40;92.50;;;;;;5042919;28;19924;-83
2022/08/24 09:06:19;;;;;;;;;;;31.10;92.70;;;;;;5050362;28;20023;-88
2022/08/24 09:08:48;;;;;;;;;;;30.70;93.80;;;;;;5063686;28;20017;-88
2022/08/24 09:11:38;;;;;;;;;;;30.60;94.70;;;;;;5060395;28;20027;-84
2022/08/24 09:14:21;;;;;;;;;;;30.30;94.50;;;;;;5047539;28;19950;-84
2022/08/24 09:16:49;;;;;;;;;;;30.30;95.50;;;;;;5060437;28;19924;-84
2022/08/24 09:19:21;;;;;;;;;;;30.20;95.60;;;;;;5063837;28;19929;-84
2022/08/24 09:21:56;;;;;;;;;;;30.20;96.30;;;;;;5067554;28;19933;-85
2022/08/24 09:24:22;;;;;;;;;;;30.20;96.60;;;;;;5064185;28;19928;-86
2022/08/24 09:27:00;;;;;;;;;;;30.10;97.40;;;;;;5068351;28;19977;-84
2022/08/24 09:29:36;;;;;;;;;;;30.00;95.50;;;;;;5065825;28;19933;-83
2022/08/24 09:32:21;;;;;;;;;;;30.10;97.30;;;;;;5067322;28;19932;-86
2022/08/24 09:34:56;;;;;;;;;;;30.30;96.70;;;;;;5051523;28;20037;-83
2022/08/24 09:37:30;;;;;;;;;;;30.30;95.50;;;;;;5065092;28;19925;-82
2022/08/24 09:40:15;;;;;;;;;;;30.30;95.50;;;;;;5069210;28;20311;-85
2022/08/24 09:42:57;;;;;;;;;;;30.40;95.40;;;;;;5067479;28;19931;-85
2022/08/24 09:45:43;;;;;;;;;;;30.50;95.40;;;;;;5061755;28;20306;-84
2022/08/24 09:48:32;;;;;;;;;;;30.50;93.70;;;;;;5063662;28;19944;-84
2022/08/24 09:51:00;;;;;;;;;;;30.60;95.50;;;;;;5064100;28;19924;-81
2022/08/24 09:53:29;;;;;;;;;;;30.70;95.10;;;;;;5062912;28;19925;-86
2022/08/24 09:55:58;;;;;;;;;;;30.60;95.10;;;;;;5061620;28;19940;-83
2022/08/24 09:58:39;;;;;;;;;;;30.60;95.70;;;;;;5066271;28;19952;-82
2022/08/24 10:01:23;;;;;;;;;;;30.60;94.00;;;;;;5057233;28;19975;-82
2022/08/24 10:03:49;;;;;;;;;;;30.60;94.10;;;;;;5051177;28;19937;-86
2022/08/24 10:06:21;;;;;;;;;;;30.80;94.80;;;;;;5065512;28;19955;-83
2022/08/24 10:08:47;;;;;;;;;;;30.90;94.30;;;;;;5060246;28;19931;-84
2022/08/24 10:11:16;;;;;;;;;;;31.00;94.40;;;;;;5064215;28;20003;-88
2022/08/24 10:13:52;;;;;;;;;;;31.10;93.00;;;;;;5064430;28;19970;-82
2022/08/24 10:16:29;;;;;;;;;;;31.00;92.90;;;;;;5063594;28;19928;-86
2022/08/24 10:18:54;;;;;;;;;;;31.20;93.60;;;;;;5066419;28;20337;-84
2022/08/24 10:21:29;;;;;;;;;;;31.20;93.40;;;;;;5061348;28;20007;-80
2022/08/24 10:23:58;;;;;;;;;;;31.30;92.00;;;;;;5046694;28;20173;-81
2022/08/24 10:26:24;;;;;;;;;;;31.40;94.10;;;;;;5063563;28;19975;-81
2022/08/24 10:28:56;;;;;;;;;;;31.30;93.10;;;;;;5059859;28;19925;-83
2022/08/24 10:31:37;;;;;;;;;;;31.50;92.50;;;;;;5052732;28;19986;-84
2022/08/24 10:34:22;;;;;;;;;;;31.60;93.60;;;;;;5062236;28;19974;-86
2022/08/24 10:36:54;;;;;;;;;;;31.60;93.10;;;;;;5063519;28;19931;-82
2022/08/24 10:39:42;;;;;;;;;;;31.60;92.20;;;;;;5057101;28;19933;-84
2022/08/24 10:42:08;;;;;;;;;;;31.80;93.40;;;;;;5062711;28;20584;-85
2022/08/24 10:44:47;;;;;;;;;;;31.90;92.60;;;;;;5052753;28;20034;-84
2022/08/24 10:47:18;;;;;;;;;;;31.90;92.10;;;;;;5047795;28;20044;-82
2022/08/24 10:49:59;;;;;;;;;;;32.00;91.00;;;;;;5047813;28;19952;-85
2022/08/24 10:52:37;;;;;;;;;;;32.10;92.30;;;;;;5066887;28;19924;-83
2022/08/24 10:55:21;;;;;;;;;;;32.20;92.00;;;;;;5053828;28;19925;-82
2022/08/24 10:57:54;;;;;;;;;;;32.40;92.10;;;;;;5044053;28;19945;-81
2022/08/24 11:00:28;;;;;;;;;;;32.50;91.90;;;;;;5045896;28;19935;-85
2022/08/24 11:03:25;;;;;;;;;;;32.20;87.50;;;;;;5065145;28;19971;-84
2022/08/24 11:05:53;;;;;;;;;;;32.20;90.40;;;;;;5045006;28;19972;-81
2022/08/24 11:08:21;;;;;;;;;;;32.30;91.20;;;;;;5049183;28;19924;-83
2022/08/24 11:11:03;;;;;;;;;;;32.50;91.20;;;;;;5053855;28;20008;-83
2022/08/24 11:13:32;;;;;;;;;;;32.70;90.60;;;;;;5034638;28;19935;-84
2022/08/24 11:15:59;;;;;;;;;;;32.70;89.30;;;;;;5059623;28;20266;-85
2022/08/24 11:18:25;;;;;;;;;;;32.60;87.10;;;;;;5068508;28;19940;-86
2022/08/24 11:20:53;;;;;;;;;;;32.50;87.10;;;;;;5061665;28;19924;-84
2022/08/24 11:23:22;;;;;;;;;;;32.40;86.00;;;;;;5068259;28;19925;-84
2022/08/24 11:26:04;;;;;;;;;;;32.40;89.10;;;;;;5059867;28;20402;-79
2022/08/24 11:28:31;;;;;;;;;;;32.50;89.40;;;;;;5045270;28;20441;-81
2022/08/24 11:30:57;;;;;;;;;;;32.50;86.30;;;;;;5038507;28;19970;-80
2022/08/24 11:33:34;;;;;;;;;;;32.50;87.00;;;;;;5047987;28;19928;-82
2022/08/24 11:36:01;;;;;;;;;;;32.30;86.60;;;;;;5058761;28;20375;-86
2022/08/24 11:38:31;;;;;;;;;;;32.30;89.40;;;;;;5048953;28;19924;-81
2022/08/24 11:41:02;;;;;;;;;;;32.50;90.00;;;;;;5061993;28;20431;-81
2022/08/24 11:43:47;;;;;;;;;;;32.50;89.60;;;;;;5061805;28;19928;-81
2022/08/24 11:46:21;;;;;;;;;;;32.40;85.40;;;;;;5060066;28;19924;-81
2022/08/24 11:48:59;;;;;;;;;;;32.50;87.40;;;;;;5059906;28;20034;-80
2022/08/24 11:51:38;;;;;;;;;;;32.30;87.10;;;;;;5043048;28;20158;-79
2022/08/24 11:54:18;;;;;;;;;;;32.30;86.80;;;;;;5055771;28;20170;-80
2022/08/24 11:56:54;;;;;;;;;;;32.30;88.00;;;;;;5058494;28;20692;-83
2022/08/24 11:59:24;;;;;;;;;;;32.20;84.20;;;;;;5055493;28;20062;-84
2022/08/24 12:01:56;;;;;;;;;;;31.80;85.10;;;;;;5056639;28;19924;-83
2022/08/24 12:04:45;;;;;;;;;;;31.80;86.20;;;;;;5052967;28;19925;-80
2022/08/24 12:07:17;;;;;;;;;;;31.70;87.80;;;;;;5054408;28;19952;-80
2022/08/24 12:09:58;;;;;;;;;;;31.60;88.30;;;;;;5062735;28;19946;-82
2022/08/24 12:12:33;;;;;;;;;;;31.60;89.30;;;;;;5056224;28;19947;-80
2022/08/24 12:15:11;;;;;;;;;;;31.40;87.30;;;;;;5062084;28;19925;-84
2022/08/24 12:17:51;;;;;;;;;;;31.10;87.30;;;;;;5061565;28;19924;-82
2022/08/24 12:20:17;;;;;;;;;;;30.90;88.80;;;;;;5051801;28;19928;-93
2022/08/24 12:22:43;;;;;;;;;;;30.80;90.00;;;;;;5050821;28;19924;-84
2022/08/24 12:27:56;;;;;;;;;;;30.80;90.30;;;;;;5040358;28;20464;-85
2022/08/24 12:30:22;;;;;;;;;;;30.70;88.50;;;;;;5020652;28;19929;-87
2022/08/24 12:32:52;;;;;;;;;;;30.60;89.20;;;;;;5039383;28;19986;-85
2022/08/24 12:35:21;;;;;;;;;;;30.60;87.70;;;;;;5037595;28;19978;-85
2022/08/24 12:37:58;;;;;;;;;;;30.70;87.60;;;;;;5054594;28;19929;-87
2022/08/24 12:40:29;;;;;;;;;;;30.60;88.30;;;;;;5040565;28;19935;-87
2022/08/24 12:43:10;;;;;;;;;;;30.60;87.80;;;;;;5043123;28;20244;-85
2022/08/24 12:45:36;;;;;;;;;;;30.60;88.80;;;;;;5063785;28;20414;-83
2022/08/24 12:48:08;;;;;;;;;;;30.60;88.30;;;;;;5054432;28;19925;-86
2022/08/24 12:50:53;;;;;;;;;;;30.50;86.30;;;;;;5051320;28;20443;-82
2022/08/24 12:53:38;;;;;;;;;;;30.50;87.90;;;;;;5067800;28;19931;-85
2022/08/24 12:56:23;;;;;;;;;;;30.40;87.80;;;;;;5060111;28;19932;-82
2022/08/24 12:59:02;;;;;;;;;;;30.40;89.20;;;;;;5049197;28;20412;-83
2022/08/24 13:01:34;;;;;;;;;;;30.40;86.90;;;;;;5048463;28;19982;-88
2022/08/24 13:04:05;;;;;;;;;;;30.30;87.40;;;;;;5066916;28;19975;-87
2022/08/24 13:06:40;;;;;;;;;;;30.30;87.00;;;;;;5065171;28;19921;-85
2022/08/24 13:09:08;;;;;;;;;;;30.10;87.20;;;;;;5061642;28;19971;-86
2022/08/24 13:11:37;;;;;;;;;;;30.10;88.30;;;;;;5063776;28;20443;-86
2022/08/24 13:14:19;;;;;;;;;;;30.00;88.80;;;;;;5063432;28;20057;-81
2022/08/24 13:16:51;;;;;;;;;;;29.90;89.60;;;;;;5066522;28;19943;-81
2022/08/24 13:19:32;;;;;;;;;;;29.80;89.40;;;;;;5052125;28;19931;-87
2022/08/24 13:22:18;;;;;;;;;;;29.60;89.30;;;;;;5061150;28;19925;-86
2022/08/24 13:24:57;;;;;;;;;;;29.70;90.90;;;;;;5066551;28;19924;-85
2022/08/24 13:27:36;;;;;;;;;;;29.60;90.50;;;;;;5063913;28;19928;-86
2022/08/24 13:33:33;;;;;;;;;;;29.50;91.20;;;;;;5069060;28;19928;-87
2022/08/24 13:36:23;;;;;;;;;;;29.60;91.90;;;;;;5067849;28;19936;-86
2022/08/24 13:39:13;;;;;;;;;;;29.30;91.70;;;;;;5064545;28;19963;-89
2022/08/24 13:41:59;;;;;;;;;;;29.20;92.60;;;;;;5048972;28;19929;-88
2022/08/24 13:44:25;;;;;;;;;;;29.20;93.70;;;;;;5063443;28;19925;-87
2022/08/24 13:46:58;;;;;;;;;;;29.10;94.50;;;;;;5057331;28;19932;-87
2022/08/24 13:49:33;;;;;;;;;;;29.00;94.50;;;;;;5035600;28;19932;-85
2022/08/24 13:52:12;;;;;;;;;;;28.90;94.30;;;;;;5042252;28;19933;-90
2022/08/24 13:55:03;;;;;;;;;;;28.70;95.00;;;;;;5066976;28;20070;-85
2022/08/24 13:57:32;;;;;;;;;;;28.70;95.30;;;;;;5065513;28;19928;-89
2022/08/24 14:00:03;;;;;;;;;;;28.50;95.70;;;;;;5071045;28;20353;-87
2022/08/24 14:03:02;;;;;;;;;;;28.50;95.70;;;;;;5063680;28;19924;-88
2022/08/24 14:05:47;;;;;;;;;;;28.40;95.70;;;;;;5019494;28;19932;-90
2022/08/24 14:08:16;;;;;;;;;;;28.30;97.10;;;;;;5064385;28;19928;-87
2022/08/24 14:11:00;;;;;;;;;;;28.30;97.60;;;;;;5054155;28;19929;-86
2022/08/24 14:13:29;;;;;;;;;;;28.30;99.10;;;;;;5061577;28;19929;-90
2022/08/24 14:18:54;;;;;;;;;;;28.20;99.90;;;;;;5058520;28;19925;-85
2022/08/24 14:21:23;;;;;;;;;;;28.20;99.90;;;;;;5047037;28;20355;-84
2022/08/24 14:24:03;;;;;;;;;;;28.10;99.90;;;;;;5041601;28;19990;-87
2022/08/24 14:26:35;;;;;;;;;;;28.10;99.90;;;;;;5064936;28;19928;-86
2022/08/24 14:29:16;;;;;;;;;;;28.10;99.90;;;;;;5046826;28;19940;-89
2022/08/24 14:31:52;;;;;;;;;;;28.10;99.90;;;;;;5048287;28;19925;-91
2022/08/24 14:34:39;;;;;;;;;;;28.10;99.90;;;;;;5046063;28;20691;-86
2022/08/24 14:37:15;;;;;;;;;;;28.00;99.90;;;;;;5051533;28;19982;-92
2022/08/24 14:39:47;;;;;;;;;;;28.00;99.90;;;;;;5063736;28;19931;-90
2022/08/24 14:42:16;;;;;;;;;;;27.90;99.90;;;;;;5045775;28;19927;-89
2022/08/24 14:45:01;;;;;;;;;;;27.90;99.90;;;;;;5061477;28;20002;-89
2022/08/24 14:47:47;;;;;;;;;;;27.90;99.90;;;;;;5073787;28;19931;-89
2022/08/24 14:50:53;;;;;;;;;;;27.90;99.90;;;;;;5063668;28;19924;-90
2022/08/24 14:53:23;;;;;;;;;;;28.00;99.90;;;;;;5047017;28;19987;-83
2022/08/24 14:56:24;;;;;;;;;;;28.10;99.90;;;;;;5043295;28;20343;-85
2022/08/24 14:58:51;;;;;;;;;;;28.10;99.90;;;;;;5080803;28;19947;-84